createdAt,value
2022-10-08T00:00:58.703Z,17.59
2022-10-08T00:03:32.199Z,17.64
2022-10-08T00:06:03.853Z,17.68
2022-10-08T00:08:37.327Z,17.64
2022-10-08T00:11:13.480Z,17.74
2022-10-08T00:13:43.913Z,17.61
2022-10-08T00:16:17.202Z,17.43
2022-10-08T00:18:52.366Z,17.31
2022-10-08T00:21:25.641Z,17.13
2022-10-08T00:23:56.273Z,17.29
2022-10-08T00:26:37.520Z,17.28
2022-10-08T00:29:09.731Z,17.23
2022-10-08T00:31:47.933Z,17.36
2022-10-08T00:34:21.229Z,17.00
2022-10-08T00:36:57.842Z,17.34
2022-10-08T00:39:31.117Z,17.08
2022-10-08T00:42:02.332Z,17.03
2022-10-08T00:44:59.142Z,17.33
2022-10-08T00:47:40.640Z,17.27
2022-10-08T00:50:17.754Z,17.31
2022-10-08T00:52:58.752Z,17.40
2022-10-08T00:55:29.428Z,17.16
2022-10-08T00:58:04.571Z,16.90
2022-10-08T01:00:36.117Z,16.73
2022-10-08T01:03:06.408Z,17.08
2022-10-08T01:05:52.497Z,17.12
2022-10-08T01:08:35.467Z,17.01
2022-10-08T01:11:14.289Z,17.16
2022-10-08T01:13:55.593Z,17.15
2022-10-08T01:16:35.227Z,17.30
2022-10-08T01:19:23.373Z,17.01
2022-10-08T01:22:09.264Z,17.08
2022-10-08T01:25:03.674Z,17.14
2022-10-08T01:27:44.009Z,16.98
2022-10-08T01:30:18.427Z,17.18
2022-10-08T01:32:56.554Z,17.13
2022-10-08T01:35:33.194Z,16.88
2022-10-08T01:38:07.813Z,16.97
2022-10-08T01:40:43.663Z,16.70
2022-10-08T01:43:18.697Z,16.64
2022-10-08T01:45:54.385Z,17.15
2022-10-08T01:48:31.206Z,16.77
2022-10-08T01:51:04.402Z,16.94
2022-10-08T01:53:41.394Z,16.87
2022-10-08T01:56:18.624Z,16.91
2022-10-08T01:58:56.790Z,16.78
2022-10-08T02:01:36.687Z,16.62
2022-10-08T02:04:23.552Z,16.82
2022-10-08T02:06:57.781Z,16.69
2022-10-08T02:09:44.492Z,16.13
2022-10-08T02:12:14.587Z,16.54
2022-10-08T02:14:50.468Z,16.55
2022-10-08T02:17:35.586Z,16.31
2022-10-08T02:20:19.349Z,16.47
2022-10-08T02:22:59.346Z,16.24
2022-10-08T02:25:35.810Z,16.24
2022-10-08T02:28:13.577Z,16.31
2022-10-08T02:30:54.027Z,16.23
2022-10-08T02:33:33.627Z,16.33
2022-10-08T02:36:10.723Z,16.29
2022-10-08T02:38:46.268Z,16.26
2022-10-08T02:41:18.714Z,16.05
2022-10-08T02:43:51.863Z,16.23
2022-10-08T02:46:31.536Z,16.31
2022-10-08T02:49:08.462Z,16.39
2022-10-08T02:51:43.061Z,16.13
2022-10-08T02:54:12.597Z,16.27
2022-10-08T02:56:48.076Z,16.26
2022-10-08T02:59:19.382Z,16.16
2022-10-08T03:01:55.305Z,16.14
2022-10-08T03:04:29.301Z,16.15
2022-10-08T03:07:00.895Z,16.22
2022-10-08T03:09:37.302Z,16.18
2022-10-08T03:12:08.905Z,16.15
2022-10-08T03:14:42.986Z,16.04
2022-10-08T03:17:17.077Z,16.15
2022-10-08T03:19:45.916Z,16.05
2022-10-08T03:22:15.232Z,16.04
2022-10-08T03:24:43.905Z,16.07
2022-10-08T03:27:15.462Z,15.93
2022-10-08T03:29:49.475Z,15.93
2022-10-08T03:32:22.145Z,15.99
2022-10-08T03:34:50.915Z,15.83
2022-10-08T03:37:21.862Z,15.83
2022-10-08T03:39:50.929Z,15.75
2022-10-08T03:42:20.910Z,15.82
2022-10-08T03:44:50.467Z,15.81
2022-10-08T03:47:23.721Z,15.79
2022-10-08T03:50:04.364Z,15.74
2022-10-08T03:52:34.119Z,15.91
2022-10-08T03:55:02.677Z,15.82
2022-10-08T03:57:31.818Z,15.79
2022-10-08T04:00:02.053Z,15.78
2022-10-08T04:02:33.472Z,15.80
2022-10-08T04:05:04.097Z,15.78
2022-10-08T04:07:34.163Z,15.75
2022-10-08T04:10:05.089Z,15.86
2022-10-08T04:12:36.841Z,15.83
2022-10-08T04:15:07.761Z,16.08
2022-10-08T04:17:38.711Z,16.16
2022-10-08T04:20:08.587Z,16.17
2022-10-08T04:22:38.320Z,16.11
2022-10-08T04:25:07.866Z,16.10
2022-10-08T04:27:37.912Z,16.11
2022-10-08T04:30:09.300Z,16.03
2022-10-08T04:32:40.904Z,16.07
2022-10-08T04:35:12.560Z,15.93
2022-10-08T04:37:42.420Z,15.50
2022-10-08T04:40:12.506Z,15.58
2022-10-08T04:42:42.799Z,15.77
2022-10-08T04:45:13.404Z,15.84
2022-10-08T04:47:45.257Z,15.65
2022-10-08T04:50:14.273Z,15.69
2022-10-08T04:52:47.762Z,15.59
2022-10-08T04:55:19.664Z,15.56
2022-10-08T04:57:49.018Z,15.59
2022-10-08T05:00:22.836Z,15.49
2022-10-08T05:02:53.818Z,15.32
2022-10-08T05:05:25.940Z,15.41
2022-10-08T05:07:56.969Z,15.36
2022-10-08T05:10:28.713Z,15.46
2022-10-08T05:12:58.763Z,15.26
2022-10-08T05:15:27.716Z,15.19
2022-10-08T05:18:08.074Z,15.19
2022-10-08T05:20:40.772Z,15.25
2022-10-08T05:23:11.289Z,15.07
2022-10-08T05:25:40.604Z,15.20
2022-10-08T05:28:11.258Z,15.12
2022-10-08T05:30:40.856Z,15.10
2022-10-08T05:33:10.859Z,14.96
2022-10-08T05:35:40.203Z,14.93
2022-10-08T05:38:08.738Z,14.98
2022-10-08T05:40:37.292Z,15.09
2022-10-08T05:43:08.331Z,14.94
2022-10-08T05:45:40.428Z,14.93
2022-10-08T05:48:36.160Z,14.82
2022-10-08T05:51:10.397Z,14.87
2022-10-08T05:53:47.428Z,14.87
2022-10-08T05:56:21.801Z,14.97
2022-10-08T05:58:54.011Z,15.06
2022-10-08T06:01:26.445Z,14.86
2022-10-08T06:04:04.484Z,14.90
2022-10-08T06:06:38.582Z,14.98
2022-10-08T06:09:10.148Z,14.74
2022-10-08T06:11:41.745Z,15.18
2022-10-08T06:14:14.235Z,14.90
2022-10-08T06:16:43.215Z,15.20
2022-10-08T06:19:14.783Z,15.18
2022-10-08T06:21:46.707Z,15.11
2022-10-08T06:24:16.595Z,15.22
2022-10-08T06:26:48.867Z,15.21
2022-10-08T06:29:22.833Z,15.07
2022-10-08T06:31:57.830Z,14.84
2022-10-08T06:34:29.244Z,14.82
2022-10-08T06:37:00.193Z,14.93
2022-10-08T06:39:31.550Z,14.98
2022-10-08T06:42:00.854Z,15.13
2022-10-08T06:44:29.828Z,15.23
2022-10-08T06:46:59.277Z,15.23
2022-10-08T06:49:29.574Z,15.28
2022-10-08T06:52:02.275Z,15.25
2022-10-08T06:54:32.444Z,15.53
2022-10-08T06:57:03.283Z,15.59
2022-10-08T06:59:33.398Z,15.77
2022-10-08T07:02:06.971Z,16.09
2022-10-08T07:04:38.387Z,15.90
2022-10-08T07:07:07.046Z,16.01
2022-10-08T07:09:37.547Z,16.18
2022-10-08T07:12:06.925Z,15.97
2022-10-08T07:14:36.167Z,16.29
2022-10-08T07:17:09.368Z,16.55
2022-10-08T07:19:42.648Z,16.69
2022-10-08T07:22:11.543Z,16.48
2022-10-08T07:24:41.053Z,16.76
2022-10-08T07:27:10.908Z,16.77
2022-10-08T07:29:39.459Z,16.57
2022-10-08T07:32:10.487Z,16.87
2022-10-08T07:34:42.856Z,16.99
2022-10-08T07:37:11.590Z,17.13
2022-10-08T07:39:41.250Z,17.27
2022-10-08T07:42:10.291Z,17.39
2022-10-08T07:44:38.908Z,17.94
2022-10-08T07:47:09.707Z,17.83
2022-10-08T07:49:41.619Z,17.19
2022-10-08T07:52:15.801Z,17.24
2022-10-08T07:54:45.670Z,17.08
2022-10-08T07:57:14.235Z,17.41
2022-10-08T07:59:43.266Z,17.02
2022-10-08T08:02:13.483Z,17.21
2022-10-08T08:04:43.866Z,17.25
2022-10-08T08:07:12.539Z,17.57
2022-10-08T08:09:42.584Z,17.52
2022-10-08T08:12:12.496Z,17.73
2022-10-08T08:14:44.447Z,17.71
2022-10-08T08:17:13.235Z,17.91
2022-10-08T08:19:44.614Z,17.77
2022-10-08T08:22:27.264Z,17.01
2022-10-08T08:24:56.261Z,17.87
2022-10-08T08:27:30.717Z,18.14
2022-10-08T08:29:59.283Z,17.81
2022-10-08T08:32:33.858Z,17.68
2022-10-08T08:35:07.914Z,17.86
2022-10-08T08:37:36.450Z,17.67
2022-10-08T08:40:11.344Z,17.96
2022-10-08T08:45:47.134Z,17.95
2022-10-08T08:48:20.854Z,17.94
2022-10-08T08:50:58.943Z,18.38
2022-10-08T08:53:30.293Z,18.39
2022-10-08T08:56:10.569Z,18.32
2022-10-08T08:58:44.226Z,18.06
2022-10-08T09:14:47.153Z,18.80
2022-10-08T09:17:19.432Z,19.36
2022-10-08T09:19:49.885Z,19.51
2022-10-08T09:22:26.382Z,19.45
2022-10-08T09:25:00.740Z,19.34
2022-10-08T09:27:54.241Z,20.10
2022-10-08T09:30:45.980Z,19.83
2022-10-08T09:33:26.412Z,20.11
2022-10-08T09:35:56.743Z,20.40
2022-10-08T09:38:30.976Z,19.93
2022-10-08T09:41:10.806Z,20.42
2022-10-08T09:46:48.195Z,20.55
2022-10-08T09:49:36.948Z,20.48
2022-10-08T09:52:17.123Z,20.75
2022-10-08T09:54:50.296Z,20.97
2022-10-08T09:57:38.456Z,20.78
2022-10-08T10:00:36.491Z,20.50
2022-10-08T10:03:25.556Z,20.89
2022-10-08T10:06:01.006Z,20.76
2022-10-08T10:08:59.001Z,21.46
2022-10-08T10:11:41.161Z,21.07
2022-10-08T10:14:27.848Z,21.36
2022-10-08T10:17:06.024Z,21.64
2022-10-08T10:19:53.377Z,21.29
2022-10-08T10:22:30.867Z,21.64
2022-10-08T10:28:16.588Z,21.89
2022-10-08T10:31:04.757Z,21.24
2022-10-08T10:33:41.245Z,21.62
2022-10-08T10:39:52.556Z,22.61
2022-10-08T10:42:50.923Z,21.45
2022-10-08T10:56:14.056Z,22.15
2022-10-08T11:05:51.735Z,21.98
2022-10-08T11:12:01.323Z,22.08
2022-10-08T11:15:34.427Z,22.55
2022-10-08T11:18:26.707Z,21.89
2022-10-08T11:21:21.542Z,22.03
2022-10-08T11:30:29.430Z,21.47
2022-10-08T11:33:17.478Z,21.94
2022-10-08T11:39:39.976Z,21.88
2022-10-08T11:42:17.867Z,21.84
2022-10-08T11:44:47.328Z,21.95
2022-10-08T11:47:51.181Z,22.39
2022-10-08T11:50:34.009Z,22.53
2022-10-08T11:53:24.543Z,23.11
2022-10-08T11:56:04.454Z,22.65
2022-10-08T11:58:35.430Z,21.74
2022-10-08T12:01:06.845Z,22.20
2022-10-08T12:03:39.098Z,23.01
2022-10-08T12:06:21.394Z,22.91
2022-10-08T12:08:57.517Z,22.71
2022-10-08T12:11:52.048Z,22.50
2022-10-08T12:14:49.585Z,22.90
2022-10-08T12:17:20.886Z,22.71
2022-10-08T12:20:22.321Z,22.86
2022-10-08T12:23:08.881Z,22.42
2022-10-08T12:26:12.374Z,22.69
2022-10-08T12:28:53.054Z,22.86
2022-10-08T12:31:39.620Z,22.32
2022-10-08T12:34:19.934Z,22.78
2022-10-08T12:37:04.694Z,22.14
2022-10-08T12:39:43.400Z,22.42
2022-10-08T12:42:20.909Z,22.93
2022-10-08T12:45:16.585Z,22.02
2022-10-08T12:47:53.826Z,22.46
2022-10-08T12:50:47.159Z,22.75
2022-10-08T12:53:18.850Z,22.73
2022-10-08T12:55:51.287Z,22.09
2022-10-08T12:58:23.990Z,22.04
2022-10-08T13:01:03.028Z,21.83
2022-10-08T13:03:35.454Z,21.30
2022-10-08T13:06:23.062Z,21.57
2022-10-08T13:08:53.433Z,21.42
2022-10-08T13:11:23.152Z,20.83
2022-10-08T13:13:53.244Z,21.00
2022-10-08T13:16:26.744Z,20.97
2022-10-08T13:19:00.172Z,21.65
2022-10-08T13:21:40.887Z,21.91
2022-10-08T13:24:38.669Z,22.21
2022-10-08T13:27:22.506Z,22.31
2022-10-08T13:29:51.197Z,22.79
2022-10-08T13:32:27.020Z,22.40
2022-10-08T13:35:01.029Z,21.86
2022-10-08T13:37:38.839Z,22.33
2022-10-08T13:40:21.671Z,22.41
2022-10-08T13:42:52.126Z,22.24
2022-10-08T13:45:26.476Z,22.36
2022-10-08T13:47:59.269Z,21.52
2022-10-08T13:50:28.248Z,21.59
2022-10-08T13:53:01.504Z,21.80
2022-10-08T13:55:35.456Z,21.98
2022-10-08T13:58:06.739Z,22.90
2022-10-08T14:00:40.026Z,22.20
2022-10-08T14:03:25.572Z,23.18
2022-10-08T14:05:54.730Z,23.21
2022-10-08T14:08:31.539Z,22.97
2022-10-08T14:11:01.468Z,22.48
2022-10-08T14:13:31.001Z,22.79
2022-10-08T14:16:00.581Z,22.91
2022-10-08T14:18:30.727Z,23.06
2022-10-08T14:21:01.360Z,22.39
2022-10-08T14:23:33.323Z,23.21
2022-10-08T14:26:02.984Z,22.90
2022-10-08T14:28:32.265Z,22.65
2022-10-08T14:31:04.235Z,22.95
2022-10-08T14:33:35.590Z,22.60
2022-10-08T14:36:17.594Z,22.86
2022-10-08T14:38:46.760Z,21.83
2022-10-08T14:41:18.591Z,22.53
2022-10-08T14:43:48.159Z,22.41
2022-10-08T14:46:21.336Z,21.99
2022-10-08T14:48:51.874Z,21.72
2022-10-08T14:51:20.765Z,22.24
2022-10-08T14:53:50.285Z,22.32
2022-10-08T14:56:20.717Z,22.03
2022-10-08T14:58:51.727Z,21.85
2022-10-08T15:01:20.589Z,21.91
2022-10-08T15:03:53.360Z,22.04
2022-10-08T15:06:22.601Z,21.95
2022-10-08T15:08:53.950Z,22.64
2022-10-08T15:11:24.309Z,22.60
2022-10-08T15:13:56.044Z,22.32
2022-10-08T15:16:24.960Z,21.68
2022-10-08T15:18:54.745Z,21.54
2022-10-08T15:21:23.238Z,21.60
2022-10-08T15:24:01.348Z,21.13
2022-10-08T15:26:32.377Z,21.41
2022-10-08T15:29:02.025Z,21.32
2022-10-08T15:31:31.460Z,21.10
2022-10-08T15:34:16.767Z,21.43
2022-10-08T15:36:47.478Z,21.45
2022-10-08T15:39:21.464Z,21.75
2022-10-08T15:41:53.354Z,20.88
2022-10-08T15:44:26.340Z,21.52
2022-10-08T15:47:03.045Z,21.73
2022-10-08T15:49:35.301Z,20.83
2022-10-08T15:52:15.963Z,20.23
2022-10-08T15:54:48.666Z,20.40
2022-10-08T15:57:19.785Z,20.60
2022-10-08T15:59:48.435Z,20.05
2022-10-08T16:02:24.488Z,19.73
2022-10-08T16:04:54.911Z,19.57
2022-10-08T16:07:24.123Z,20.04
2022-10-08T16:09:53.012Z,19.85
2022-10-08T16:12:29.875Z,19.40
2022-10-08T16:15:00.141Z,19.76
2022-10-08T16:17:29.201Z,20.36
2022-10-08T16:19:59.641Z,20.10
2022-10-08T16:22:35.504Z,19.98
2022-10-08T16:25:05.663Z,19.90
2022-10-08T16:27:35.203Z,19.81
2022-10-08T16:30:04.391Z,19.49
2022-10-08T16:32:33.318Z,18.92
2022-10-08T16:35:03.968Z,19.59
2022-10-08T16:37:32.731Z,19.11
2022-10-08T16:40:04.034Z,19.29
2022-10-08T16:42:33.003Z,19.18
2022-10-08T16:45:05.013Z,18.95
2022-10-08T16:47:36.859Z,19.09
2022-10-08T16:50:08.723Z,19.13
2022-10-08T16:52:37.913Z,19.06
2022-10-08T16:55:07.230Z,19.32
2022-10-08T16:57:36.279Z,19.32
2022-10-08T17:00:06.223Z,19.07
2022-10-08T17:02:35.163Z,19.06
2022-10-08T17:05:10.393Z,18.66
2022-10-08T17:07:38.750Z,18.72
2022-10-08T17:10:11.165Z,18.52
2022-10-08T17:12:40.655Z,18.37
2022-10-08T17:15:14.984Z,18.58
2022-10-08T17:17:51.970Z,18.39
2022-10-08T17:20:29.128Z,18.18
2022-10-08T17:23:01.991Z,18.36
2022-10-08T17:25:31.329Z,18.17
2022-10-08T17:28:00.148Z,18.13
2022-10-08T17:30:28.867Z,18.04
2022-10-08T17:32:57.856Z,17.80
2022-10-08T17:35:28.321Z,17.51
2022-10-08T17:37:59.255Z,17.55
2022-10-08T17:40:31.642Z,17.60
2022-10-08T17:43:00.776Z,17.35
2022-10-08T17:45:33.107Z,17.27
2022-10-08T17:48:01.877Z,17.42
2022-10-08T17:50:43.640Z,17.38
2022-10-08T17:53:17.252Z,17.12
2022-10-08T17:55:46.682Z,17.36
2022-10-08T17:58:16.684Z,17.33
2022-10-08T18:00:48.106Z,17.14
2022-10-08T18:03:17.746Z,17.13
2022-10-08T18:06:07.218Z,17.09
2022-10-08T18:08:37.247Z,16.94
2022-10-08T18:11:11.938Z,17.01
2022-10-08T18:13:41.479Z,16.94
2022-10-08T18:16:16.447Z,16.81
2022-10-08T18:18:51.322Z,16.73
2022-10-08T18:21:25.424Z,16.80
2022-10-08T18:23:56.227Z,16.74
2022-10-08T18:26:34.569Z,16.63
2022-10-08T18:29:15.263Z,16.62
2022-10-08T18:31:46.832Z,16.64
2022-10-08T18:34:26.818Z,16.59
2022-10-08T18:37:03.998Z,16.43
2022-10-08T18:39:33.582Z,16.42
2022-10-08T18:42:06.913Z,16.21
2022-10-08T18:44:36.002Z,16.15
2022-10-08T18:47:11.272Z,16.21
2022-10-08T18:49:41.396Z,16.20
2022-10-08T18:52:17.957Z,16.15
2022-10-08T18:55:01.904Z,16.16
2022-10-08T18:57:33.963Z,16.16
2022-10-08T19:00:09.354Z,16.09
2022-10-08T19:02:44.089Z,16.03
2022-10-08T19:05:21.807Z,16.03
2022-10-08T19:07:59.137Z,15.93
2022-10-08T19:10:36.378Z,15.92
2022-10-08T19:13:10.897Z,15.81
2022-10-08T19:15:52.922Z,15.79
2022-10-08T19:18:25.372Z,15.90
2022-10-08T19:21:03.081Z,15.90
2022-10-08T19:23:38.328Z,15.88
2022-10-08T19:26:12.735Z,15.86
2022-10-08T19:28:52.898Z,15.82
2022-10-08T19:31:33.136Z,15.81
2022-10-08T19:34:08.819Z,15.76
2022-10-08T19:36:44.920Z,15.77
2022-10-08T19:39:22.869Z,15.70
2022-10-08T19:41:55.046Z,15.70
2022-10-08T19:44:31.011Z,15.58
2022-10-08T19:47:11.968Z,15.62
2022-10-08T19:49:42.696Z,15.45
2022-10-08T19:52:14.962Z,15.58
2022-10-08T19:54:45.879Z,15.44
2022-10-08T19:57:15.616Z,15.42
2022-10-08T19:59:44.714Z,15.38
2022-10-08T20:02:15.193Z,15.36
2022-10-08T20:04:49.223Z,15.29
2022-10-08T20:07:20.074Z,15.26
2022-10-08T20:09:56.216Z,15.31
2022-10-08T20:12:40.094Z,15.30
2022-10-08T20:15:11.539Z,15.18
2022-10-08T20:17:43.220Z,15.17
2022-10-08T20:20:31.693Z,15.26
2022-10-08T20:23:00.913Z,15.28
2022-10-08T20:25:32.055Z,15.25
2022-10-08T20:28:01.121Z,15.29
2022-10-08T20:30:30.376Z,15.18
2022-10-08T20:32:59.086Z,15.24
2022-10-08T20:35:29.999Z,15.22
2022-10-08T20:38:01.005Z,15.19
2022-10-08T20:40:31.593Z,15.14
2022-10-08T20:43:01.753Z,15.12
2022-10-08T20:45:31.377Z,15.10
2022-10-08T20:48:01.509Z,15.07
2022-10-08T20:50:31.774Z,15.00
2022-10-08T20:53:00.311Z,14.96
2022-10-08T20:55:31.238Z,14.77
2022-10-08T20:58:00.683Z,14.81
2022-10-08T21:00:30.453Z,14.80
2022-10-08T21:03:00.474Z,14.77
2022-10-08T21:05:31.241Z,14.76
2022-10-08T21:08:02.961Z,14.46
2022-10-08T21:10:38.984Z,14.49
2022-10-08T21:13:08.475Z,14.57
2022-10-08T21:15:37.462Z,14.63
2022-10-08T21:18:06.789Z,14.40
2022-10-08T21:20:39.270Z,14.51
2022-10-08T21:23:11.408Z,14.53
2022-10-08T21:25:42.595Z,14.38
2022-10-08T21:28:13.819Z,14.40
2022-10-08T21:30:44.142Z,14.43
2022-10-08T21:33:13.130Z,14.36
2022-10-08T21:35:41.818Z,14.38
2022-10-08T21:38:12.121Z,14.27
2022-10-08T21:40:46.950Z,14.25
2022-10-08T21:43:17.582Z,14.21
2022-10-08T21:45:56.878Z,14.15
2022-10-08T21:48:33.284Z,14.10
2022-10-08T21:51:05.382Z,14.09
2022-10-08T21:53:37.371Z,14.06
2022-10-08T21:56:17.728Z,14.03
2022-10-08T21:58:50.173Z,14.01
2022-10-08T22:01:25.901Z,13.97
2022-10-08T22:03:56.244Z,14.00
2022-10-08T22:06:26.849Z,14.01
2022-10-08T22:08:56.484Z,13.91
2022-10-08T22:11:28.093Z,13.92
2022-10-08T22:13:57.403Z,13.92
2022-10-08T22:16:29.970Z,13.89
2022-10-08T22:19:00.309Z,13.82
2022-10-08T22:21:29.681Z,13.80
2022-10-08T22:23:58.985Z,13.76
2022-10-08T22:26:32.965Z,13.68
2022-10-08T22:29:03.383Z,13.69
2022-10-08T22:31:35.412Z,13.69
2022-10-08T22:34:04.597Z,13.66
2022-10-08T22:36:38.657Z,13.64
2022-10-08T22:39:10.005Z,13.59
2022-10-08T22:41:40.689Z,13.56
2022-10-08T22:44:09.872Z,13.61
2022-10-08T22:46:41.477Z,13.58
2022-10-08T22:49:14.121Z,13.57
2022-10-08T22:51:46.918Z,13.54
2022-10-08T22:54:17.884Z,13.53
2022-10-08T22:56:50.404Z,13.40
2022-10-08T22:59:29.272Z,13.49
2022-10-08T23:01:59.387Z,13.46
2022-10-08T23:04:28.453Z,13.34
2022-10-08T23:06:57.045Z,13.30
2022-10-08T23:09:26.118Z,13.39
2022-10-08T23:11:57.424Z,13.40
2022-10-08T23:14:26.943Z,13.27
2022-10-08T23:16:58.535Z,13.28
2022-10-08T23:19:29.882Z,13.37
2022-10-08T23:22:02.141Z,13.36
2022-10-08T23:24:31.390Z,13.29
2022-10-08T23:27:01.804Z,13.19
2022-10-08T23:29:30.774Z,13.19
2022-10-08T23:31:59.921Z,13.24
2022-10-08T23:34:28.528Z,13.23
2022-10-08T23:36:57.790Z,13.21
2022-10-08T23:39:26.932Z,13.16
2022-10-08T23:41:56.134Z,13.12
2022-10-08T23:44:26.547Z,13.12
2022-10-08T23:46:56.774Z,13.07
2022-10-08T23:49:27.617Z,13.08
2022-10-08T23:51:58.459Z,13.03
2022-10-08T23:54:28.262Z,13.01
2022-10-08T23:56:57.309Z,12.98
2022-10-08T23:59:29.871Z,12.93
